sensor_id;sensor_type;location;lat;lon;timestamp;temperature;humidity
74511;DHT22;62991;50.040;18.400;2023-12-14T00:00:59;6.70;78.40
74511;DHT22;62991;50.040;18.400;2023-12-14T00:04:00;6.70;77.70
74511;DHT22;62991;50.040;18.400;2023-12-14T00:07:01;6.70;78.00
74511;DHT22;62991;50.040;18.400;2023-12-14T00:10:02;6.70;77.20
74511;DHT22;62991;50.040;18.400;2023-12-14T00:13:04;6.70;77.60
74511;DHT22;62991;50.040;18.400;2023-12-14T00:16:07;6.80;77.40
74511;DHT22;62991;50.040;18.400;2023-12-14T00:19:08;6.80;77.60
74511;DHT22;62991;50.040;18.400;2023-12-14T00:22:08;6.90;77.00
74511;DHT22;62991;50.040;18.400;2023-12-14T00:25:09;6.90;76.90
74511;DHT22;62991;50.040;18.400;2023-12-14T00:28:10;6.80;77.00
74511;DHT22;62991;50.040;18.400;2023-12-14T00:31:10;6.70;77.60
74511;DHT22;62991;50.040;18.400;2023-12-14T00:34:11;6.70;78.10
74511;DHT22;62991;50.040;18.400;2023-12-14T00:37:12;6.60;78.20
74511;DHT22;62991;50.040;18.400;2023-12-14T00:40:13;6.60;78.00
74511;DHT22;62991;50.040;18.400;2023-12-14T00:43:13;6.80;77.50
74511;DHT22;62991;50.040;18.400;2023-12-14T00:46:14;6.90;76.60
74511;DHT22;62991;50.040;18.400;2023-12-14T00:49:15;6.80;77.00
74511;DHT22;62991;50.040;18.400;2023-12-14T00:52:18;6.70;76.80
74511;DHT22;62991;50.040;18.400;2023-12-14T00:55:19;6.70;77.30
74511;DHT22;62991;50.040;18.400;2023-12-14T00:58:19;6.60;76.80
74511;DHT22;62991;50.040;18.400;2023-12-14T01:01:20;6.80;77.40
74511;DHT22;62991;50.040;18.400;2023-12-14T01:04:21;6.70;76.90
74511;DHT22;62991;50.040;18.400;2023-12-14T01:07:22;6.80;76.40
74511;DHT22;62991;50.040;18.400;2023-12-14T01:10:22;6.90;75.70
74511;DHT22;62991;50.040;18.400;2023-12-14T01:13:23;6.70;76.20
74511;DHT22;62991;50.040;18.400;2023-12-14T01:16:26;6.70;76.40
74511;DHT22;62991;50.040;18.400;2023-12-14T01:19:27;6.80;76.60
74511;DHT22;62991;50.040;18.400;2023-12-14T01:22:28;6.80;76.30
74511;DHT22;62991;50.040;18.400;2023-12-14T01:25:28;6.80;76.10
74511;DHT22;62991;50.040;18.400;2023-12-14T01:28:29;6.90;76.00
74511;DHT22;62991;50.040;18.400;2023-12-14T01:31:29;6.80;76.10
74511;DHT22;62991;50.040;18.400;2023-12-14T01:34:30;6.70;76.30
74511;DHT22;62991;50.040;18.400;2023-12-14T01:37:31;6.70;76.70
74511;DHT22;62991;50.040;18.400;2023-12-14T01:40:31;6.70;76.30
74511;DHT22;62991;50.040;18.400;2023-12-14T01:43:32;6.70;76.70
74511;DHT22;62991;50.040;18.400;2023-12-14T01:46:33;6.60;77.00
74511;DHT22;62991;50.040;18.400;2023-12-14T01:49:34;6.70;76.70
74511;DHT22;62991;50.040;18.400;2023-12-14T01:52:34;6.70;77.20
74511;DHT22;62991;50.040;18.400;2023-12-14T01:55:35;6.70;76.70
74511;DHT22;62991;50.040;18.400;2023-12-14T01:58:36;6.70;77.10
74511;DHT22;62991;50.040;18.400;2023-12-14T02:01:47;6.50;77.80
74511;DHT22;62991;50.040;18.400;2023-12-14T02:04:52;6.40;78.40
74511;DHT22;62991;50.040;18.400;2023-12-14T02:07:53;6.40;79.20
74511;DHT22;62991;50.040;18.400;2023-12-14T02:10:53;6.50;78.40
74511;DHT22;62991;50.040;18.400;2023-12-14T02:13:54;6.50;78.50
74511;DHT22;62991;50.040;18.400;2023-12-14T02:16:55;6.40;78.90
74511;DHT22;62991;50.040;18.400;2023-12-14T02:19:55;6.40;78.40
74511;DHT22;62991;50.040;18.400;2023-12-14T02:22:57;6.40;79.30
74511;DHT22;62991;50.040;18.400;2023-12-14T02:25:58;6.60;78.50
74511;DHT22;62991;50.040;18.400;2023-12-14T02:28:59;6.60;77.70
74511;DHT22;62991;50.040;18.400;2023-12-14T02:32:00;6.70;77.80
74511;DHT22;62991;50.040;18.400;2023-12-14T02:35:00;6.70;77.70
74511;DHT22;62991;50.040;18.400;2023-12-14T02:38:01;6.80;77.50
74511;DHT22;62991;50.040;18.400;2023-12-14T02:41:02;6.80;77.30
74511;DHT22;62991;50.040;18.400;2023-12-14T02:44:02;6.70;77.50
74511;DHT22;62991;50.040;18.400;2023-12-14T02:47:03;6.80;77.70
74511;DHT22;62991;50.040;18.400;2023-12-14T02:50:04;6.90;76.90
74511;DHT22;62991;50.040;18.400;2023-12-14T02:53:05;6.90;76.80
74511;DHT22;62991;50.040;18.400;2023-12-14T02:56:06;7.00;76.60
74511;DHT22;62991;50.040;18.400;2023-12-14T02:59:07;6.70;77.40
74511;DHT22;62991;50.040;18.400;2023-12-14T03:02:08;6.70;78.50
74511;DHT22;62991;50.040;18.400;2023-12-14T03:05:09;6.80;77.40
74511;DHT22;62991;50.040;18.400;2023-12-14T03:08:10;6.80;77.70
74511;DHT22;62991;50.040;18.400;2023-12-14T03:11:21;6.90;76.80
74511;DHT22;62991;50.040;18.400;2023-12-14T03:14:23;6.80;77.10
74511;DHT22;62991;50.040;18.400;2023-12-14T03:17:23;6.80;76.80
74511;DHT22;62991;50.040;18.400;2023-12-14T03:20:24;6.80;77.00
74511;DHT22;62991;50.040;18.400;2023-12-14T03:23:25;6.70;76.90
74511;DHT22;62991;50.040;18.400;2023-12-14T03:26:25;6.70;77.50
74511;DHT22;62991;50.040;18.400;2023-12-14T03:29:27;6.70;77.40
74511;DHT22;62991;50.040;18.400;2023-12-14T03:32:27;6.70;77.00
74511;DHT22;62991;50.040;18.400;2023-12-14T03:35:28;6.80;76.60
74511;DHT22;62991;50.040;18.400;2023-12-14T03:38:28;6.70;76.10
74511;DHT22;62991;50.040;18.400;2023-12-14T03:41:29;6.70;77.00
74511;DHT22;62991;50.040;18.400;2023-12-14T03:44:30;6.60;76.70
74511;DHT22;62991;50.040;18.400;2023-12-14T03:47:30;6.60;76.80
74511;DHT22;62991;50.040;18.400;2023-12-14T03:50:31;6.60;77.10
74511;DHT22;62991;50.040;18.400;2023-12-14T03:53:33;6.70;76.70
74511;DHT22;62991;50.040;18.400;2023-12-14T03:56:33;6.70;76.10
74511;DHT22;62991;50.040;18.400;2023-12-14T03:59:38;6.50;76.70
74511;DHT22;62991;50.040;18.400;2023-12-14T04:02:40;6.30;77.40
74511;DHT22;62991;50.040;18.400;2023-12-14T04:05:40;6.50;77.10
74511;DHT22;62991;50.040;18.400;2023-12-14T04:08:42;6.30;77.20
74511;DHT22;62991;50.040;18.400;2023-12-14T04:11:42;6.50;77.00
74511;DHT22;62991;50.040;18.400;2023-12-14T04:14:43;6.30;77.00
74511;DHT22;62991;50.040;18.400;2023-12-14T04:17:45;6.10;77.30
74511;DHT22;62991;50.040;18.400;2023-12-14T04:20:45;6.20;77.90
74511;DHT22;62991;50.040;18.400;2023-12-14T04:23:46;6.20;76.90
74511;DHT22;62991;50.040;18.400;2023-12-14T04:26:47;6.10;77.40
74511;DHT22;62991;50.040;18.400;2023-12-14T04:29:47;6.30;76.90
74511;DHT22;62991;50.040;18.400;2023-12-14T04:32:48;6.20;77.40
74511;DHT22;62991;50.040;18.400;2023-12-14T04:35:49;6.20;77.50
74511;DHT22;62991;50.040;18.400;2023-12-14T04:38:49;6.20;77.30
74511;DHT22;62991;50.040;18.400;2023-12-14T04:41:51;6.10;77.00
74511;DHT22;62991;50.040;18.400;2023-12-14T04:44:52;6.20;77.00
74511;DHT22;62991;50.040;18.400;2023-12-14T04:47:53;6.20;77.10
74511;DHT22;62991;50.040;18.400;2023-12-14T04:50:54;6.10;77.60
74511;DHT22;62991;50.040;18.400;2023-12-14T04:53:54;6.30;77.20
74511;DHT22;62991;50.040;18.400;2023-12-14T04:56:55;6.10;76.70
74511;DHT22;62991;50.040;18.400;2023-12-14T04:59:56;6.00;78.10
74511;DHT22;62991;50.040;18.400;2023-12-14T05:02:56;6.30;76.90
74511;DHT22;62991;50.040;18.400;2023-12-14T05:05:57;6.10;77.40
74511;DHT22;62991;50.040;18.400;2023-12-14T05:08:58;6.10;76.70
74511;DHT22;62991;50.040;18.400;2023-12-14T05:11:59;6.00;77.20
74511;DHT22;62991;50.040;18.400;2023-12-14T05:15:00;6.00;77.10
74511;DHT22;62991;50.040;18.400;2023-12-14T05:18:00;6.10;76.80
74511;DHT22;62991;50.040;18.400;2023-12-14T05:21:01;6.10;76.80
74511;DHT22;62991;50.040;18.400;2023-12-14T05:24:02;6.10;76.10
74511;DHT22;62991;50.040;18.400;2023-12-14T05:27:03;5.90;77.10
74511;DHT22;62991;50.040;18.400;2023-12-14T05:30:04;5.90;77.10
74511;DHT22;62991;50.040;18.400;2023-12-14T05:33:05;6.00;76.30
74511;DHT22;62991;50.040;18.400;2023-12-14T05:36:07;6.00;76.00
74511;DHT22;62991;50.040;18.400;2023-12-14T05:39:09;5.90;75.70
74511;DHT22;62991;50.040;18.400;2023-12-14T05:42:09;5.80;76.60
74511;DHT22;62991;50.040;18.400;2023-12-14T05:45:10;5.80;76.30
74511;DHT22;62991;50.040;18.400;2023-12-14T05:48:11;5.90;76.50
74511;DHT22;62991;50.040;18.400;2023-12-14T05:51:12;5.80;76.20
74511;DHT22;62991;50.040;18.400;2023-12-14T05:54:12;5.80;76.30
74511;DHT22;62991;50.040;18.400;2023-12-14T05:57:13;5.70;76.40
74511;DHT22;62991;50.040;18.400;2023-12-14T06:00:14;5.70;76.50
74511;DHT22;62991;50.040;18.400;2023-12-14T06:03:14;5.70;76.70
74511;DHT22;62991;50.040;18.400;2023-12-14T06:06:15;5.80;77.00
74511;DHT22;62991;50.040;18.400;2023-12-14T06:09:16;5.90;75.80
74511;DHT22;62991;50.040;18.400;2023-12-14T06:12:19;6.00;75.90
74511;DHT22;62991;50.040;18.400;2023-12-14T06:15:20;5.90;75.80
74511;DHT22;62991;50.040;18.400;2023-12-14T06:18:21;5.90;75.70
74511;DHT22;62991;50.040;18.400;2023-12-14T06:21:21;5.90;76.40
74511;DHT22;62991;50.040;18.400;2023-12-14T06:24:23;5.60;76.80
74511;DHT22;62991;50.040;18.400;2023-12-14T06:27:24;5.50;76.80
74511;DHT22;62991;50.040;18.400;2023-12-14T06:30:26;5.60;76.60
74511;DHT22;62991;50.040;18.400;2023-12-14T06:33:27;5.70;76.80
74511;DHT22;62991;50.040;18.400;2023-12-14T06:36:28;5.90;76.20
74511;DHT22;62991;50.040;18.400;2023-12-14T06:39:29;6.10;75.30
74511;DHT22;62991;50.040;18.400;2023-12-14T06:42:30;6.20;75.10
74511;DHT22;62991;50.040;18.400;2023-12-14T06:45:31;6.20;74.50
74511;DHT22;62991;50.040;18.400;2023-12-14T06:48:31;6.10;75.30
74511;DHT22;62991;50.040;18.400;2023-12-14T06:51:32;6.00;75.10
74511;DHT22;62991;50.040;18.400;2023-12-14T06:54:33;5.90;75.60
74511;DHT22;62991;50.040;18.400;2023-12-14T06:57:33;6.20;75.30
74511;DHT22;62991;50.040;18.400;2023-12-14T07:00:34;6.30;74.40
74511;DHT22;62991;50.040;18.400;2023-12-14T07:03:35;6.40;73.60
74511;DHT22;62991;50.040;18.400;2023-12-14T07:06:36;6.40;73.80
74511;DHT22;62991;50.040;18.400;2023-12-14T07:09:36;6.30;74.30
74511;DHT22;62991;50.040;18.400;2023-12-14T07:12:37;6.30;74.20
74511;DHT22;62991;50.040;18.400;2023-12-14T07:15:38;6.20;74.80
74511;DHT22;62991;50.040;18.400;2023-12-14T07:18:40;6.40;74.70
74511;DHT22;62991;50.040;18.400;2023-12-14T07:21:41;6.40;74.20
74511;DHT22;62991;50.040;18.400;2023-12-14T07:24:42;6.40;73.70
74511;DHT22;62991;50.040;18.400;2023-12-14T07:27:43;6.40;73.90
74511;DHT22;62991;50.040;18.400;2023-12-14T07:30:45;6.30;74.40
74511;DHT22;62991;50.040;18.400;2023-12-14T07:33:46;6.40;74.20
74511;DHT22;62991;50.040;18.400;2023-12-14T07:36:47;6.40;74.40
74511;DHT22;62991;50.040;18.400;2023-12-14T07:39:48;6.60;73.90
74511;DHT22;62991;50.040;18.400;2023-12-14T07:42:49;6.60;73.90
74511;DHT22;62991;50.040;18.400;2023-12-14T07:45:50;6.60;73.40
74511;DHT22;62991;50.040;18.400;2023-12-14T07:48:50;6.60;73.70
74511;DHT22;62991;50.040;18.400;2023-12-14T07:51:51;6.50;74.00
74511;DHT22;62991;50.040;18.400;2023-12-14T07:54:52;6.60;73.60
74511;DHT22;62991;50.040;18.400;2023-12-14T07:57:53;6.50;73.90
74511;DHT22;62991;50.040;18.400;2023-12-14T08:00:53;6.60;73.80
74511;DHT22;62991;50.040;18.400;2023-12-14T08:03:54;6.50;73.70
74511;DHT22;62991;50.040;18.400;2023-12-14T08:06:55;6.60;73.40
74511;DHT22;62991;50.040;18.400;2023-12-14T08:09:56;6.50;73.60
74511;DHT22;62991;50.040;18.400;2023-12-14T08:12:57;6.30;74.60
74511;DHT22;62991;50.040;18.400;2023-12-14T08:15:58;6.10;75.10
74511;DHT22;62991;50.040;18.400;2023-12-14T08:18:58;6.30;75.10
74511;DHT22;62991;50.040;18.400;2023-12-14T08:21:59;6.20;75.30
74511;DHT22;62991;50.040;18.400;2023-12-14T08:25:00;6.40;74.80
74511;DHT22;62991;50.040;18.400;2023-12-14T08:28:01;6.40;74.90
74511;DHT22;62991;50.040;18.400;2023-12-14T08:31:02;6.40;74.60
74511;DHT22;62991;50.040;18.400;2023-12-14T08:34:03;6.50;75.10
74511;DHT22;62991;50.040;18.400;2023-12-14T08:37:04;6.60;74.80
74511;DHT22;62991;50.040;18.400;2023-12-14T08:40:05;6.60;74.60
74511;DHT22;62991;50.040;18.400;2023-12-14T08:43:07;6.30;75.50
74511;DHT22;62991;50.040;18.400;2023-12-14T08:46:08;6.40;75.30
74511;DHT22;62991;50.040;18.400;2023-12-14T08:49:13;6.30;75.80
74511;DHT22;62991;50.040;18.400;2023-12-14T08:52:13;6.50;74.80
74511;DHT22;62991;50.040;18.400;2023-12-14T08:55:14;6.30;75.30
74511;DHT22;62991;50.040;18.400;2023-12-14T08:58:15;6.50;75.00
74511;DHT22;62991;50.040;18.400;2023-12-14T09:01:20;6.50;75.10
74511;DHT22;62991;50.040;18.400;2023-12-14T09:04:24;6.70;73.80
74511;DHT22;62991;50.040;18.400;2023-12-14T09:07:24;6.60;73.60
74511;DHT22;62991;50.040;18.400;2023-12-14T09:10:25;6.40;74.60
74511;DHT22;62991;50.040;18.400;2023-12-14T09:13:26;6.50;74.60
74511;DHT22;62991;50.040;18.400;2023-12-14T09:16:27;6.60;73.80
74511;DHT22;62991;50.040;18.400;2023-12-14T09:19:29;6.30;74.70
74511;DHT22;62991;50.040;18.400;2023-12-14T09:22:31;6.40;74.60
74511;DHT22;62991;50.040;18.400;2023-12-14T09:25:32;6.30;75.30
74511;DHT22;62991;50.040;18.400;2023-12-14T09:28:33;6.20;75.50
74511;DHT22;62991;50.040;18.400;2023-12-14T09:31:34;6.40;75.30
74511;DHT22;62991;50.040;18.400;2023-12-14T09:34:35;6.30;75.10
74511;DHT22;62991;50.040;18.400;2023-12-14T09:37:36;6.40;74.90
74511;DHT22;62991;50.040;18.400;2023-12-14T09:40:36;6.40;75.10
74511;DHT22;62991;50.040;18.400;2023-12-14T09:43:37;6.60;74.90
74511;DHT22;62991;50.040;18.400;2023-12-14T09:46:38;6.40;75.00
74511;DHT22;62991;50.040;18.400;2023-12-14T09:49:40;6.30;75.80
74511;DHT22;62991;50.040;18.400;2023-12-14T09:52:43;6.20;76.00
74511;DHT22;62991;50.040;18.400;2023-12-14T09:55:45;6.20;76.00
74511;DHT22;62991;50.040;18.400;2023-12-14T09:58:46;6.20;76.10
74511;DHT22;62991;50.040;18.400;2023-12-14T10:01:47;6.30;76.40
74511;DHT22;62991;50.040;18.400;2023-12-14T10:04:47;6.50;75.30
74511;DHT22;62991;50.040;18.400;2023-12-14T10:07:48;6.60;75.10
74511;DHT22;62991;50.040;18.400;2023-12-14T10:10:51;6.50;74.70
74511;DHT22;62991;50.040;18.400;2023-12-14T10:13:53;6.40;75.30
74511;DHT22;62991;50.040;18.400;2023-12-14T10:16:54;6.50;75.50
74511;DHT22;62991;50.040;18.400;2023-12-14T10:19:55;6.50;75.30
74511;DHT22;62991;50.040;18.400;2023-12-14T10:22:56;6.70;74.80
74511;DHT22;62991;50.040;18.400;2023-12-14T10:25:57;6.80;74.10
74511;DHT22;62991;50.040;18.400;2023-12-14T10:28:58;6.60;74.60
74511;DHT22;62991;50.040;18.400;2023-12-14T10:31:59;6.50;75.60
74511;DHT22;62991;50.040;18.400;2023-12-14T10:34:59;6.60;74.80
74511;DHT22;62991;50.040;18.400;2023-12-14T10:38:04;6.70;75.40
74511;DHT22;62991;50.040;18.400;2023-12-14T10:41:05;6.90;74.30
74511;DHT22;62991;50.040;18.400;2023-12-14T10:44:08;7.00;73.60
74511;DHT22;62991;50.040;18.400;2023-12-14T10:47:10;7.10;73.30
74511;DHT22;62991;50.040;18.400;2023-12-14T10:50:12;7.10;73.40
74511;DHT22;62991;50.040;18.400;2023-12-14T10:53:13;7.10;73.40
74511;DHT22;62991;50.040;18.400;2023-12-14T10:56:16;7.20;73.20
74511;DHT22;62991;50.040;18.400;2023-12-14T10:59:17;7.20;73.00
74511;DHT22;62991;50.040;18.400;2023-12-14T11:02:18;7.20;72.90
74511;DHT22;62991;50.040;18.400;2023-12-14T11:05:19;7.10;73.50
74511;DHT22;62991;50.040;18.400;2023-12-14T11:08:27;7.00;73.30
74511;DHT22;62991;50.040;18.400;2023-12-14T11:11:28;7.00;74.10
74511;DHT22;62991;50.040;18.400;2023-12-14T11:14:29;6.90;74.00
74511;DHT22;62991;50.040;18.400;2023-12-14T11:17:30;6.90;74.30
74511;DHT22;62991;50.040;18.400;2023-12-14T11:20:40;6.90;74.40
74511;DHT22;62991;50.040;18.400;2023-12-14T11:23:50;6.80;74.60
74511;DHT22;62991;50.040;18.400;2023-12-14T11:26:51;6.90;74.50
74511;DHT22;62991;50.040;18.400;2023-12-14T11:29:53;6.80;75.00
74511;DHT22;62991;50.040;18.400;2023-12-14T11:32:53;6.60;75.40
74511;DHT22;62991;50.040;18.400;2023-12-14T11:35:54;6.60;75.60
74511;DHT22;62991;50.040;18.400;2023-12-14T11:38:57;6.90;75.00
74511;DHT22;62991;50.040;18.400;2023-12-14T11:42:02;7.00;74.30
74511;DHT22;62991;50.040;18.400;2023-12-14T11:45:04;6.90;74.80
74511;DHT22;62991;50.040;18.400;2023-12-14T11:48:07;6.70;75.30
74511;DHT22;62991;50.040;18.400;2023-12-14T11:51:08;6.80;75.10
74511;DHT22;62991;50.040;18.400;2023-12-14T11:54:09;6.80;75.00
74511;DHT22;62991;50.040;18.400;2023-12-14T11:57:10;6.90;74.50
74511;DHT22;62991;50.040;18.400;2023-12-14T12:00:11;7.00;74.40
74511;DHT22;62991;50.040;18.400;2023-12-14T12:03:17;6.90;74.80
74511;DHT22;62991;50.040;18.400;2023-12-14T12:06:24;6.90;75.30
74511;DHT22;62991;50.040;18.400;2023-12-14T12:09:41;6.90;75.70
74511;DHT22;62991;50.040;18.400;2023-12-14T12:12:41;6.80;75.90
74511;DHT22;62991;50.040;18.400;2023-12-14T12:15:43;6.80;76.30
74511;DHT22;62991;50.040;18.400;2023-12-14T12:18:44;6.90;76.10
74511;DHT22;62991;50.040;18.400;2023-12-14T12:21:45;7.00;75.50
74511;DHT22;62991;50.040;18.400;2023-12-14T12:24:45;6.90;75.90
74511;DHT22;62991;50.040;18.400;2023-12-14T12:27:46;7.10;76.00
74511;DHT22;62991;50.040;18.400;2023-12-14T12:30:47;7.20;75.30
74511;DHT22;62991;50.040;18.400;2023-12-14T12:33:48;7.00;74.70
74511;DHT22;62991;50.040;18.400;2023-12-14T12:36:49;6.90;74.60
74511;DHT22;62991;50.040;18.400;2023-12-14T12:39:49;6.80;75.00
74511;DHT22;62991;50.040;18.400;2023-12-14T12:42:50;6.80;75.70
74511;DHT22;62991;50.040;18.400;2023-12-14T12:45:51;6.80;74.90
74511;DHT22;62991;50.040;18.400;2023-12-14T12:48:52;6.50;76.60
74511;DHT22;62991;50.040;18.400;2023-12-14T12:51:53;6.80;75.70
74511;DHT22;62991;50.040;18.400;2023-12-14T12:54:53;7.00;74.90
74511;DHT22;62991;50.040;18.400;2023-12-14T12:57:54;7.00;74.90
74511;DHT22;62991;50.040;18.400;2023-12-14T13:00:55;6.90;74.90
74511;DHT22;62991;50.040;18.400;2023-12-14T13:03:56;6.90;75.10
74511;DHT22;62991;50.040;18.400;2023-12-14T13:06:57;7.10;74.70
74511;DHT22;62991;50.040;18.400;2023-12-14T13:09:58;7.00;74.60
74511;DHT22;62991;50.040;18.400;2023-12-14T13:12:59;6.90;75.40
74511;DHT22;62991;50.040;18.400;2023-12-14T13:15:59;6.80;75.90
74511;DHT22;62991;50.040;18.400;2023-12-14T13:19:00;6.80;75.20
74511;DHT22;62991;50.040;18.400;2023-12-14T13:22:01;6.90;75.40
74511;DHT22;62991;50.040;18.400;2023-12-14T13:25:04;6.90;75.30
74511;DHT22;62991;50.040;18.400;2023-12-14T13:28:05;6.90;75.20
74511;DHT22;62991;50.040;18.400;2023-12-14T13:31:05;6.80;75.30
74511;DHT22;62991;50.040;18.400;2023-12-14T13:34:06;6.70;76.10
74511;DHT22;62991;50.040;18.400;2023-12-14T13:37:07;6.70;75.80
74511;DHT22;62991;50.040;18.400;2023-12-14T13:40:09;6.80;75.90
74511;DHT22;62991;50.040;18.400;2023-12-14T13:43:10;6.80;76.10
74511;DHT22;62991;50.040;18.400;2023-12-14T13:46:11;7.00;75.20
74511;DHT22;62991;50.040;18.400;2023-12-14T13:49:12;6.90;75.10
74511;DHT22;62991;50.040;18.400;2023-12-14T13:52:13;7.00;74.80
74511;DHT22;62991;50.040;18.400;2023-12-14T13:55:13;7.00;74.70
74511;DHT22;62991;50.040;18.400;2023-12-14T13:58:15;7.10;74.60
74511;DHT22;62991;50.040;18.400;2023-12-14T14:01:15;7.00;74.50
74511;DHT22;62991;50.040;18.400;2023-12-14T14:04:17;7.00;74.40
74511;DHT22;62991;50.040;18.400;2023-12-14T14:07:18;6.80;75.00
74511;DHT22;62991;50.040;18.400;2023-12-14T14:10:19;6.70;75.70
74511;DHT22;62991;50.040;18.400;2023-12-14T14:13:20;6.70;75.30
74511;DHT22;62991;50.040;18.400;2023-12-14T14:16:22;6.60;75.30
74511;DHT22;62991;50.040;18.400;2023-12-14T14:19:22;6.60;76.10
74511;DHT22;62991;50.040;18.400;2023-12-14T14:22:23;6.60;76.00
74511;DHT22;62991;50.040;18.400;2023-12-14T14:25:25;6.50;76.00
74511;DHT22;62991;50.040;18.400;2023-12-14T14:28:26;6.50;76.00
74511;DHT22;62991;50.040;18.400;2023-12-14T14:31:27;6.50;76.10
74511;DHT22;62991;50.040;18.400;2023-12-14T14:34:30;6.50;76.40
74511;DHT22;62991;50.040;18.400;2023-12-14T14:37:31;6.50;76.90
74511;DHT22;62991;50.040;18.400;2023-12-14T14:40:31;6.50;76.30
74511;DHT22;62991;50.040;18.400;2023-12-14T14:43:32;6.60;76.60
74511;DHT22;62991;50.040;18.400;2023-12-14T14:46:33;6.60;76.00
74511;DHT22;62991;50.040;18.400;2023-12-14T14:49:34;6.50;76.70
74511;DHT22;62991;50.040;18.400;2023-12-14T14:52:34;6.60;76.70
74511;DHT22;62991;50.040;18.400;2023-12-14T14:55:35;6.70;76.00
74511;DHT22;62991;50.040;18.400;2023-12-14T14:58:36;6.70;75.90
74511;DHT22;62991;50.040;18.400;2023-12-14T15:01:37;6.60;76.10
74511;DHT22;62991;50.040;18.400;2023-12-14T15:04:38;6.60;76.30
74511;DHT22;62991;50.040;18.400;2023-12-14T15:07:38;6.70;75.80
74511;DHT22;62991;50.040;18.400;2023-12-14T15:10:39;6.80;75.90
74511;DHT22;62991;50.040;18.400;2023-12-14T15:13:40;7.00;75.10
74511;DHT22;62991;50.040;18.400;2023-12-14T15:16:42;6.90;75.00
74511;DHT22;62991;50.040;18.400;2023-12-14T15:19:42;6.80;75.40
74511;DHT22;62991;50.040;18.400;2023-12-14T15:22:46;6.80;75.70
74511;DHT22;62991;50.040;18.400;2023-12-14T15:25:47;6.80;75.80
74511;DHT22;62991;50.040;18.400;2023-12-14T15:28:47;6.80;75.40
74511;DHT22;62991;50.040;18.400;2023-12-14T15:31:49;6.80;75.50
74511;DHT22;62991;50.040;18.400;2023-12-14T15:34:52;6.80;75.80
74511;DHT22;62991;50.040;18.400;2023-12-14T15:37:52;6.90;75.60
74511;DHT22;62991;50.040;18.400;2023-12-14T15:40:53;6.80;75.50
74511;DHT22;62991;50.040;18.400;2023-12-14T15:43:54;6.70;76.10
74511;DHT22;62991;50.040;18.400;2023-12-14T15:46:55;6.70;75.90
74511;DHT22;62991;50.040;18.400;2023-12-14T15:49:55;6.30;77.20
74511;DHT22;62991;50.040;18.400;2023-12-14T15:52:56;6.40;77.50
74511;DHT22;62991;50.040;18.400;2023-12-14T15:55:57;6.40;77.30
74511;DHT22;62991;50.040;18.400;2023-12-14T15:58:58;6.40;77.20
74511;DHT22;62991;50.040;18.400;2023-12-14T16:01:59;6.30;77.20
74511;DHT22;62991;50.040;18.400;2023-12-14T16:04:59;6.30;77.60
74511;DHT22;62991;50.040;18.400;2023-12-14T16:08:00;6.20;77.60
74511;DHT22;62991;50.040;18.400;2023-12-14T16:11:01;6.30;77.70
74511;DHT22;62991;50.040;18.400;2023-12-14T16:14:03;6.20;77.70
74511;DHT22;62991;50.040;18.400;2023-12-14T16:17:03;6.00;78.90
74511;DHT22;62991;50.040;18.400;2023-12-14T16:20:04;6.20;78.50
74511;DHT22;62991;50.040;18.400;2023-12-14T16:23:05;6.30;77.90
74511;DHT22;62991;50.040;18.400;2023-12-14T16:26:07;6.20;77.90
74511;DHT22;62991;50.040;18.400;2023-12-14T16:29:11;6.20;77.70
74511;DHT22;62991;50.040;18.400;2023-12-14T16:32:11;6.10;77.90
74511;DHT22;62991;50.040;18.400;2023-12-14T16:35:13;6.20;77.70
74511;DHT22;62991;50.040;18.400;2023-12-14T16:38:14;6.20;77.20
74511;DHT22;62991;50.040;18.400;2023-12-14T16:41:19;6.00;77.40
74511;DHT22;62991;50.040;18.400;2023-12-14T16:44:20;5.90;78.10
74511;DHT22;62991;50.040;18.400;2023-12-14T16:47:21;5.90;78.00
74511;DHT22;62991;50.040;18.400;2023-12-14T16:50:22;5.90;77.90
74511;DHT22;62991;50.040;18.400;2023-12-14T16:53:23;6.00;78.10
74511;DHT22;62991;50.040;18.400;2023-12-14T16:56:31;5.90;77.60
74511;DHT22;62991;50.040;18.400;2023-12-14T16:59:32;6.00;77.30
74511;DHT22;62991;50.040;18.400;2023-12-14T17:02:33;6.10;77.30
74511;DHT22;62991;50.040;18.400;2023-12-14T17:05:34;5.90;77.50
74511;DHT22;62991;50.040;18.400;2023-12-14T17:08:35;5.80;77.90
74511;DHT22;62991;50.040;18.400;2023-12-14T17:11:35;5.90;77.50
74511;DHT22;62991;50.040;18.400;2023-12-14T17:14:36;5.90;77.90
74511;DHT22;62991;50.040;18.400;2023-12-14T17:17:37;5.80;78.30
74511;DHT22;62991;50.040;18.400;2023-12-14T17:20:38;5.80;77.70
74511;DHT22;62991;50.040;18.400;2023-12-14T17:23:38;5.80;78.00
74511;DHT22;62991;50.040;18.400;2023-12-14T17:26:39;5.70;77.90
74511;DHT22;62991;50.040;18.400;2023-12-14T17:29:40;5.70;78.00
74511;DHT22;62991;50.040;18.400;2023-12-14T17:32:40;5.70;77.90
74511;DHT22;62991;50.040;18.400;2023-12-14T17:35:41;5.60;78.30
74511;DHT22;62991;50.040;18.400;2023-12-14T17:38:42;5.50;78.50
74511;DHT22;62991;50.040;18.400;2023-12-14T17:41:45;5.60;78.50
74511;DHT22;62991;50.040;18.400;2023-12-14T17:44:46;5.60;78.60
74511;DHT22;62991;50.040;18.400;2023-12-14T17:47:47;5.60;78.50
74511;DHT22;62991;50.040;18.400;2023-12-14T17:50:48;5.60;78.70
74511;DHT22;62991;50.040;18.400;2023-12-14T17:53:49;5.70;78.00
74511;DHT22;62991;50.040;18.400;2023-12-14T17:56:50;5.70;78.40
74511;DHT22;62991;50.040;18.400;2023-12-14T17:59:51;5.90;77.50
74511;DHT22;62991;50.040;18.400;2023-12-14T18:02:52;5.70;77.90
74511;DHT22;62991;50.040;18.400;2023-12-14T18:05:53;5.60;78.20
74511;DHT22;62991;50.040;18.400;2023-12-14T18:08:53;5.60;77.90
74511;DHT22;62991;50.040;18.400;2023-12-14T18:11:54;5.60;78.70
74511;DHT22;62991;50.040;18.400;2023-12-14T18:14:55;5.70;77.60
74511;DHT22;62991;50.040;18.400;2023-12-14T18:17:56;5.50;77.50
74511;DHT22;62991;50.040;18.400;2023-12-14T18:20:56;5.50;79.40
74511;DHT22;62991;50.040;18.400;2023-12-14T18:23:57;5.40;77.80
74511;DHT22;62991;50.040;18.400;2023-12-14T18:26:58;5.30;78.20
74511;DHT22;62991;50.040;18.400;2023-12-14T18:29:58;5.30;78.70
74511;DHT22;62991;50.040;18.400;2023-12-14T18:32:59;5.20;78.50
74511;DHT22;62991;50.040;18.400;2023-12-14T18:36:00;5.00;78.60
74511;DHT22;62991;50.040;18.400;2023-12-14T18:39:01;4.70;79.10
74511;DHT22;62991;50.040;18.400;2023-12-14T18:42:02;4.80;78.80
74511;DHT22;62991;50.040;18.400;2023-12-14T18:45:07;4.90;78.90
74511;DHT22;62991;50.040;18.400;2023-12-14T18:48:08;5.00;78.60
74511;DHT22;62991;50.040;18.400;2023-12-14T18:51:08;5.00;78.20
74511;DHT22;62991;50.040;18.400;2023-12-14T18:54:10;4.70;78.60
74511;DHT22;62991;50.040;18.400;2023-12-14T18:57:12;4.70;78.90
74511;DHT22;62991;50.040;18.400;2023-12-14T19:00:13;4.70;79.10
74511;DHT22;62991;50.040;18.400;2023-12-14T19:03:16;4.80;78.40